sensor_id;sensor_type;location;lat;lon;timestamp;temperature;humidity
63445;DHT22;49573;47.682;9.170;2022-09-17T00:00:27;11.50;82.40
63445;DHT22;49573;47.682;9.170;2022-09-17T00:03:14;11.50;83.00
63445;DHT22;49573;47.682;9.170;2022-09-17T00:06:01;11.50;83.00
63445;DHT22;49573;47.682;9.170;2022-09-17T00:08:48;11.50;83.20
63445;DHT22;49573;47.682;9.170;2022-09-17T00:11:36;11.50;81.80
63445;DHT22;49573;47.682;9.170;2022-09-17T00:14:24;11.40;82.20
63445;DHT22;49573;47.682;9.170;2022-09-17T00:17:10;11.40;81.30
63445;DHT22;49573;47.682;9.170;2022-09-17T00:19:56;11.40;81.60
63445;DHT22;49573;47.682;9.170;2022-09-17T00:22:42;11.40;81.20
63445;DHT22;49573;47.682;9.170;2022-09-17T00:25:28;11.30;80.10
63445;DHT22;49573;47.682;9.170;2022-09-17T00:28:15;11.30;81.50
63445;DHT22;49573;47.682;9.170;2022-09-17T00:31:06;11.30;82.40
63445;DHT22;49573;47.682;9.170;2022-09-17T00:33:52;11.30;83.30
63445;DHT22;49573;47.682;9.170;2022-09-17T00:36:38;11.40;83.30
63445;DHT22;49573;47.682;9.170;2022-09-17T00:39:24;11.30;82.90
63445;DHT22;49573;47.682;9.170;2022-09-17T00:42:11;11.40;83.60
63445;DHT22;49573;47.682;9.170;2022-09-17T00:44:57;11.30;83.60
63445;DHT22;49573;47.682;9.170;2022-09-17T00:47:46;11.30;83.10
63445;DHT22;49573;47.682;9.170;2022-09-17T00:50:37;11.30;82.70
63445;DHT22;49573;47.682;9.170;2022-09-17T00:53:24;11.30;81.90
63445;DHT22;49573;47.682;9.170;2022-09-17T00:56:13;11.20;81.80
63445;DHT22;49573;47.682;9.170;2022-09-17T00:59:01;11.20;81.90
63445;DHT22;49573;47.682;9.170;2022-09-17T01:01:49;11.20;81.50
63445;DHT22;49573;47.682;9.170;2022-09-17T01:04:36;11.20;81.00
63445;DHT22;49573;47.682;9.170;2022-09-17T01:07:49;11.10;79.80
63445;DHT22;49573;47.682;9.170;2022-09-17T01:10:53;11.00;80.00
63445;DHT22;49573;47.682;9.170;2022-09-17T01:13:51;11.00;79.90
63445;DHT22;49573;47.682;9.170;2022-09-17T01:16:45;10.90;80.10
63445;DHT22;49573;47.682;9.170;2022-09-17T01:19:54;10.90;79.40
63445;DHT22;49573;47.682;9.170;2022-09-17T01:22:54;10.80;79.30
63445;DHT22;49573;47.682;9.170;2022-09-17T01:25:50;10.80;79.40
63445;DHT22;49573;47.682;9.170;2022-09-17T01:28:42;10.80;79.10
63445;DHT22;49573;47.682;9.170;2022-09-17T01:31:35;10.80;78.70
63445;DHT22;49573;47.682;9.170;2022-09-17T01:34:27;10.70;78.90
63445;DHT22;49573;47.682;9.170;2022-09-17T01:37:17;10.70;79.10
63445;DHT22;49573;47.682;9.170;2022-09-17T01:40:08;10.70;78.50
63445;DHT22;49573;47.682;9.170;2022-09-17T01:43:00;10.70;78.90
63445;DHT22;49573;47.682;9.170;2022-09-17T01:45:50;10.60;79.00
63445;DHT22;49573;47.682;9.170;2022-09-17T01:48:41;10.70;78.50
63445;DHT22;49573;47.682;9.170;2022-09-17T01:51:31;10.70;79.30
63445;DHT22;49573;47.682;9.170;2022-09-17T01:54:23;10.70;78.60
63445;DHT22;49573;47.682;9.170;2022-09-17T01:57:14;10.70;78.80
63445;DHT22;49573;47.682;9.170;2022-09-17T02:00:06;10.60;78.60
63445;DHT22;49573;47.682;9.170;2022-09-17T02:02:58;10.70;79.00
63445;DHT22;49573;47.682;9.170;2022-09-17T02:05:49;10.60;78.90
63445;DHT22;49573;47.682;9.170;2022-09-17T02:08:47;10.70;80.00
63445;DHT22;49573;47.682;9.170;2022-09-17T02:11:36;10.70;80.10
63445;DHT22;49573;47.682;9.170;2022-09-17T02:14:27;10.80;80.20
63445;DHT22;49573;47.682;9.170;2022-09-17T02:17:20;10.80;80.50
63445;DHT22;49573;47.682;9.170;2022-09-17T02:20:07;10.80;80.50
63445;DHT22;49573;47.682;9.170;2022-09-17T02:22:58;10.90;81.00
63445;DHT22;49573;47.682;9.170;2022-09-17T02:25:49;10.80;80.40
63445;DHT22;49573;47.682;9.170;2022-09-17T02:28:41;10.90;80.00
63445;DHT22;49573;47.682;9.170;2022-09-17T02:31:28;10.80;78.90
63445;DHT22;49573;47.682;9.170;2022-09-17T02:34:14;10.80;78.40
63445;DHT22;49573;47.682;9.170;2022-09-17T02:37:00;10.80;79.90
63445;DHT22;49573;47.682;9.170;2022-09-17T02:39:48;10.80;79.00
63445;DHT22;49573;47.682;9.170;2022-09-17T02:42:54;10.80;78.70
63445;DHT22;49573;47.682;9.170;2022-09-17T02:45:51;10.80;79.90
63445;DHT22;49573;47.682;9.170;2022-09-17T02:49:01;10.70;79.30
63445;DHT22;49573;47.682;9.170;2022-09-17T02:51:55;10.80;79.70
63445;DHT22;49573;47.682;9.170;2022-09-17T02:54:54;10.70;79.20
63445;DHT22;49573;47.682;9.170;2022-09-17T02:57:46;10.70;78.40
63445;DHT22;49573;47.682;9.170;2022-09-17T03:00:33;10.60;78.90
63445;DHT22;49573;47.682;9.170;2022-09-17T03:03:25;10.60;80.10
63445;DHT22;49573;47.682;9.170;2022-09-17T03:06:13;10.60;80.80
63445;DHT22;49573;47.682;9.170;2022-09-17T03:09:00;10.50;81.40
63445;DHT22;49573;47.682;9.170;2022-09-17T03:11:47;10.50;81.20
63445;DHT22;49573;47.682;9.170;2022-09-17T03:14:33;10.40;81.40
63445;DHT22;49573;47.682;9.170;2022-09-17T03:17:19;10.40;81.80
63445;DHT22;49573;47.682;9.170;2022-09-17T03:20:06;10.30;81.40
63445;DHT22;49573;47.682;9.170;2022-09-17T03:22:52;10.40;81.40
63445;DHT22;49573;47.682;9.170;2022-09-17T03:25:38;10.30;81.60
63445;DHT22;49573;47.682;9.170;2022-09-17T03:28:25;10.30;81.50
63445;DHT22;49573;47.682;9.170;2022-09-17T03:31:11;10.30;81.90
63445;DHT22;49573;47.682;9.170;2022-09-17T03:33:57;10.30;81.90
63445;DHT22;49573;47.682;9.170;2022-09-17T03:36:43;10.30;81.20
63445;DHT22;49573;47.682;9.170;2022-09-17T03:39:29;10.30;80.60
63445;DHT22;49573;47.682;9.170;2022-09-17T03:42:15;10.30;79.10
63445;DHT22;49573;47.682;9.170;2022-09-17T03:45:04;10.30;80.10
63445;DHT22;49573;47.682;9.170;2022-09-17T03:47:50;10.40;79.50
63445;DHT22;49573;47.682;9.170;2022-09-17T03:50:36;10.40;79.50
63445;DHT22;49573;47.682;9.170;2022-09-17T03:53:22;10.30;78.70
63445;DHT22;49573;47.682;9.170;2022-09-17T03:56:08;10.30;78.60
63445;DHT22;49573;47.682;9.170;2022-09-17T03:58:56;10.30;79.50
63445;DHT22;49573;47.682;9.170;2022-09-17T04:01:44;10.30;78.80
63445;DHT22;49573;47.682;9.170;2022-09-17T04:04:30;10.20;78.20
63445;DHT22;49573;47.682;9.170;2022-09-17T04:07:16;10.30;80.00
63445;DHT22;49573;47.682;9.170;2022-09-17T04:10:03;10.30;79.40
63445;DHT22;49573;47.682;9.170;2022-09-17T04:12:50;10.40;79.90
63445;DHT22;49573;47.682;9.170;2022-09-17T04:15:36;10.30;78.70
63445;DHT22;49573;47.682;9.170;2022-09-17T04:18:23;10.20;77.60
63445;DHT22;49573;47.682;9.170;2022-09-17T04:21:09;10.20;79.50
63445;DHT22;49573;47.682;9.170;2022-09-17T04:23:55;10.40;78.70
63445;DHT22;49573;47.682;9.170;2022-09-17T04:26:41;10.40;78.70
63445;DHT22;49573;47.682;9.170;2022-09-17T04:29:27;10.50;78.80
63445;DHT22;49573;47.682;9.170;2022-09-17T04:32:13;10.40;78.80
63445;DHT22;49573;47.682;9.170;2022-09-17T04:35:01;10.30;77.40
63445;DHT22;49573;47.682;9.170;2022-09-17T04:37:51;10.30;78.60
63445;DHT22;49573;47.682;9.170;2022-09-17T04:40:39;10.30;78.50
63445;DHT22;49573;47.682;9.170;2022-09-17T04:43:27;10.20;78.40
63445;DHT22;49573;47.682;9.170;2022-09-17T04:46:13;10.20;78.20
63445;DHT22;49573;47.682;9.170;2022-09-17T04:48:59;10.20;78.30
63445;DHT22;49573;47.682;9.170;2022-09-17T04:51:46;10.20;78.60
63445;DHT22;49573;47.682;9.170;2022-09-17T04:54:32;10.30;79.00
63445;DHT22;49573;47.682;9.170;2022-09-17T04:57:18;10.30;78.80
63445;DHT22;49573;47.682;9.170;2022-09-17T05:00:06;10.30;78.50
63445;DHT22;49573;47.682;9.170;2022-09-17T05:02:55;10.30;78.90
63445;DHT22;49573;47.682;9.170;2022-09-17T05:05:41;10.30;78.90
63445;DHT22;49573;47.682;9.170;2022-09-17T05:08:29;10.30;78.70
63445;DHT22;49573;47.682;9.170;2022-09-17T05:11:15;10.30;78.20
63445;DHT22;49573;47.682;9.170;2022-09-17T05:14:01;10.20;78.90
63445;DHT22;49573;47.682;9.170;2022-09-17T05:16:47;10.20;78.70
63445;DHT22;49573;47.682;9.170;2022-09-17T05:19:33;10.20;79.70
63445;DHT22;49573;47.682;9.170;2022-09-17T05:22:19;10.20;80.80
63445;DHT22;49573;47.682;9.170;2022-09-17T05:25:07;10.30;80.60
63445;DHT22;49573;47.682;9.170;2022-09-17T05:27:54;10.30;81.10
63445;DHT22;49573;47.682;9.170;2022-09-17T05:30:40;10.20;80.50
63445;DHT22;49573;47.682;9.170;2022-09-17T05:33:27;10.20;81.20
63445;DHT22;49573;47.682;9.170;2022-09-17T05:36:13;10.30;81.30
63445;DHT22;49573;47.682;9.170;2022-09-17T05:38:59;10.20;80.60
63445;DHT22;49573;47.682;9.170;2022-09-17T05:41:47;10.30;81.60
63445;DHT22;49573;47.682;9.170;2022-09-17T05:44:33;10.30;81.30
63445;DHT22;49573;47.682;9.170;2022-09-17T05:47:19;10.40;80.80
63445;DHT22;49573;47.682;9.170;2022-09-17T05:50:05;10.30;81.30
63445;DHT22;49573;47.682;9.170;2022-09-17T05:52:52;10.20;81.50
63445;DHT22;49573;47.682;9.170;2022-09-17T05:55:38;10.30;81.90
63445;DHT22;49573;47.682;9.170;2022-09-17T05:58:26;10.40;81.40
63445;DHT22;49573;47.682;9.170;2022-09-17T06:01:13;10.50;81.90
63445;DHT22;49573;47.682;9.170;2022-09-17T06:04:01;10.40;81.70
63445;DHT22;49573;47.682;9.170;2022-09-17T06:06:49;10.40;80.60
63445;DHT22;49573;47.682;9.170;2022-09-17T06:09:35;10.50;81.40
63445;DHT22;49573;47.682;9.170;2022-09-17T06:12:25;10.50;81.70
63445;DHT22;49573;47.682;9.170;2022-09-17T06:15:13;10.50;81.50
63445;DHT22;49573;47.682;9.170;2022-09-17T06:17:59;10.50;81.20
63445;DHT22;49573;47.682;9.170;2022-09-17T06:20:52;10.50;80.10
63445;DHT22;49573;47.682;9.170;2022-09-17T06:23:38;10.50;80.80
63445;DHT22;49573;47.682;9.170;2022-09-17T06:26:24;10.50;80.10
63445;DHT22;49573;47.682;9.170;2022-09-17T06:29:10;10.40;80.10
63445;DHT22;49573;47.682;9.170;2022-09-17T06:32:01;10.40;80.80
63445;DHT22;49573;47.682;9.170;2022-09-17T06:34:47;10.50;81.00
63445;DHT22;49573;47.682;9.170;2022-09-17T06:37:34;10.50;80.60
63445;DHT22;49573;47.682;9.170;2022-09-17T06:40:21;10.40;80.20
63445;DHT22;49573;47.682;9.170;2022-09-17T06:43:08;10.30;80.30
63445;DHT22;49573;47.682;9.170;2022-09-17T06:45:55;10.30;80.00
63445;DHT22;49573;47.682;9.170;2022-09-17T06:48:42;10.30;79.80
63445;DHT22;49573;47.682;9.170;2022-09-17T06:51:28;10.30;79.60
63445;DHT22;49573;47.682;9.170;2022-09-17T06:54:14;10.40;79.00
63445;DHT22;49573;47.682;9.170;2022-09-17T06:57:00;10.30;78.90
63445;DHT22;49573;47.682;9.170;2022-09-17T06:59:46;10.30;78.80
63445;DHT22;49573;47.682;9.170;2022-09-17T07:02:34;10.40;78.00
63445;DHT22;49573;47.682;9.170;2022-09-17T07:05:22;10.30;77.00
63445;DHT22;49573;47.682;9.170;2022-09-17T07:08:08;10.30;77.40
63445;DHT22;49573;47.682;9.170;2022-09-17T07:10:55;10.30;76.90
63445;DHT22;49573;47.682;9.170;2022-09-17T07:13:42;10.30;77.20
63445;DHT22;49573;47.682;9.170;2022-09-17T07:16:28;10.40;76.40
63445;DHT22;49573;47.682;9.170;2022-09-17T07:19:20;10.30;77.30
63445;DHT22;49573;47.682;9.170;2022-09-17T07:22:07;10.40;77.60
63445;DHT22;49573;47.682;9.170;2022-09-17T07:24:53;10.60;77.90
63445;DHT22;49573;47.682;9.170;2022-09-17T07:27:39;10.70;77.80
63445;DHT22;49573;47.682;9.170;2022-09-17T07:30:25;10.70;78.00
63445;DHT22;49573;47.682;9.170;2022-09-17T07:33:12;10.80;77.80
63445;DHT22;49573;47.682;9.170;2022-09-17T07:35:59;10.80;78.00
63445;DHT22;49573;47.682;9.170;2022-09-17T07:38:47;10.90;77.40
63445;DHT22;49573;47.682;9.170;2022-09-17T07:41:33;11.00;78.40
63445;DHT22;49573;47.682;9.170;2022-09-17T07:44:19;11.10;77.00
63445;DHT22;49573;47.682;9.170;2022-09-17T07:47:06;11.20;76.60
63445;DHT22;49573;47.682;9.170;2022-09-17T07:49:53;11.10;75.20
63445;DHT22;49573;47.682;9.170;2022-09-17T07:52:44;11.10;75.00
63445;DHT22;49573;47.682;9.170;2022-09-17T07:55:32;11.20;74.30
63445;DHT22;49573;47.682;9.170;2022-09-17T07:58:18;11.20;75.80
63445;DHT22;49573;47.682;9.170;2022-09-17T08:01:05;11.10;74.40
63445;DHT22;49573;47.682;9.170;2022-09-17T08:03:53;11.20;73.30
63445;DHT22;49573;47.682;9.170;2022-09-17T08:06:39;11.30;73.50
63445;DHT22;49573;47.682;9.170;2022-09-17T08:09:25;11.70;73.60
63445;DHT22;49573;47.682;9.170;2022-09-17T08:12:13;11.80;71.20
63445;DHT22;49573;47.682;9.170;2022-09-17T08:14:59;12.10;71.80
63445;DHT22;49573;47.682;9.170;2022-09-17T08:17:45;12.00;70.20
63445;DHT22;49573;47.682;9.170;2022-09-17T08:20:31;12.30;72.50
63445;DHT22;49573;47.682;9.170;2022-09-17T08:23:18;12.30;72.00
63445;DHT22;49573;47.682;9.170;2022-09-17T08:26:05;12.30;70.60
63445;DHT22;49573;47.682;9.170;2022-09-17T08:28:55;11.90;70.90
63445;DHT22;49573;47.682;9.170;2022-09-17T08:31:41;11.60;70.20
63445;DHT22;49573;47.682;9.170;2022-09-17T08:34:27;11.70;71.90
63445;DHT22;49573;47.682;9.170;2022-09-17T08:37:13;11.70;69.80
63445;DHT22;49573;47.682;9.170;2022-09-17T08:39:59;12.00;71.00
63445;DHT22;49573;47.682;9.170;2022-09-17T08:42:51;12.30;69.90
63445;DHT22;49573;47.682;9.170;2022-09-17T08:45:40;12.40;71.10
63445;DHT22;49573;47.682;9.170;2022-09-17T08:48:33;12.30;71.60
63445;DHT22;49573;47.682;9.170;2022-09-17T08:51:29;12.30;71.20
63445;DHT22;49573;47.682;9.170;2022-09-17T08:54:21;12.60;70.60
63445;DHT22;49573;47.682;9.170;2022-09-17T08:57:17;12.40;66.30
63445;DHT22;49573;47.682;9.170;2022-09-17T09:00:11;12.60;65.90
63445;DHT22;49573;47.682;9.170;2022-09-17T09:03:14;12.90;65.60
63445;DHT22;49573;47.682;9.170;2022-09-17T09:06:04;12.80;66.00
63445;DHT22;49573;47.682;9.170;2022-09-17T09:08:50;12.80;67.50
63445;DHT22;49573;47.682;9.170;2022-09-17T09:11:39;13.20;68.80
63445;DHT22;49573;47.682;9.170;2022-09-17T09:14:30;13.30;65.60
63445;DHT22;49573;47.682;9.170;2022-09-17T09:17:18;13.50;64.10
63445;DHT22;49573;47.682;9.170;2022-09-17T09:20:13;13.30;65.00
63445;DHT22;49573;47.682;9.170;2022-09-17T09:23:09;13.50;66.60
63445;DHT22;49573;47.682;9.170;2022-09-17T09:26:05;13.60;64.40
63445;DHT22;49573;47.682;9.170;2022-09-17T09:29:03;13.50;64.30
63445;DHT22;49573;47.682;9.170;2022-09-17T09:32:08;13.50;65.90
63445;DHT22;49573;47.682;9.170;2022-09-17T09:35:01;13.10;64.90
63445;DHT22;49573;47.682;9.170;2022-09-17T09:37:55;13.30;66.60
63445;DHT22;49573;47.682;9.170;2022-09-17T09:40:47;13.20;65.10
63445;DHT22;49573;47.682;9.170;2022-09-17T09:43:38;13.20;66.00
63445;DHT22;49573;47.682;9.170;2022-09-17T09:46:46;13.20;65.20
63445;DHT22;49573;47.682;9.170;2022-09-17T09:49:50;13.30;66.40
63445;DHT22;49573;47.682;9.170;2022-09-17T09:52:53;13.50;66.20
63445;DHT22;49573;47.682;9.170;2022-09-17T09:56:00;13.70;64.20
63445;DHT22;49573;47.682;9.170;2022-09-17T09:58:48;13.80;65.50
63445;DHT22;49573;47.682;9.170;2022-09-17T10:01:38;14.00;63.40
63445;DHT22;49573;47.682;9.170;2022-09-17T10:04:26;14.20;62.50
63445;DHT22;49573;47.682;9.170;2022-09-17T10:07:12;14.10;63.60
63445;DHT22;49573;47.682;9.170;2022-09-17T10:10:08;14.00;64.00
63445;DHT22;49573;47.682;9.170;2022-09-17T10:13:05;14.20;65.00
63445;DHT22;49573;47.682;9.170;2022-09-17T10:15:51;14.20;62.80
63445;DHT22;49573;47.682;9.170;2022-09-17T10:18:37;14.20;64.10
63445;DHT22;49573;47.682;9.170;2022-09-17T10:21:30;14.00;64.60
63445;DHT22;49573;47.682;9.170;2022-09-17T10:24:23;13.80;63.60
63445;DHT22;49573;47.682;9.170;2022-09-17T10:27:13;13.30;63.50
63445;DHT22;49573;47.682;9.170;2022-09-17T10:30:03;13.10;65.00
63445;DHT22;49573;47.682;9.170;2022-09-17T10:33:16;13.10;64.70
63445;DHT22;49573;47.682;9.170;2022-09-17T10:36:04;13.20;63.50
63445;DHT22;49573;47.682;9.170;2022-09-17T10:38:51;13.30;63.70
63445;DHT22;49573;47.682;9.170;2022-09-17T10:41:52;13.30;63.30
63445;DHT22;49573;47.682;9.170;2022-09-17T10:44:51;13.80;63.50
63445;DHT22;49573;47.682;9.170;2022-09-17T10:47:40;13.80;63.30
63445;DHT22;49573;47.682;9.170;2022-09-17T10:50:29;13.80;64.10
63445;DHT22;49573;47.682;9.170;2022-09-17T10:53:17;14.00;65.60
63445;DHT22;49573;47.682;9.170;2022-09-17T10:56:09;13.80;61.30
63445;DHT22;49573;47.682;9.170;2022-09-17T10:59:09;13.70;63.80
63445;DHT22;49573;47.682;9.170;2022-09-17T11:02:09;14.10;63.50
63445;DHT22;49573;47.682;9.170;2022-09-17T11:05:15;13.90;63.40
63445;DHT22;49573;47.682;9.170;2022-09-17T11:08:14;13.90;62.80
63445;DHT22;49573;47.682;9.170;2022-09-17T11:11:07;13.70;63.90
63445;DHT22;49573;47.682;9.170;2022-09-17T11:14:01;13.80;66.90
63445;DHT22;49573;47.682;9.170;2022-09-17T11:16:59;13.30;69.70
63445;DHT22;49573;47.682;9.170;2022-09-17T11:19:57;13.00;70.40
63445;DHT22;49573;47.682;9.170;2022-09-17T11:22:45;12.60;74.20
63445;DHT22;49573;47.682;9.170;2022-09-17T11:25:39;12.40;74.40
63445;DHT22;49573;47.682;9.170;2022-09-17T11:28:41;12.40;74.50
63445;DHT22;49573;47.682;9.170;2022-09-17T11:31:36;12.30;74.90
63445;DHT22;49573;47.682;9.170;2022-09-17T11:34:29;11.80;76.20
63445;DHT22;49573;47.682;9.170;2022-09-17T11:37:24;11.90;75.30
63445;DHT22;49573;47.682;9.170;2022-09-17T11:40:15;11.50;75.60
63445;DHT22;49573;47.682;9.170;2022-09-17T11:43:06;11.70;76.00
63445;DHT22;49573;47.682;9.170;2022-09-17T11:45:59;11.80;76.00
63445;DHT22;49573;47.682;9.170;2022-09-17T11:48:50;12.00;77.60
63445;DHT22;49573;47.682;9.170;2022-09-17T11:51:39;12.40;75.30
63445;DHT22;49573;47.682;9.170;2022-09-17T11:54:30;13.10;73.50
63445;DHT22;49573;47.682;9.170;2022-09-17T11:57:19;13.50;74.00
63445;DHT22;49573;47.682;9.170;2022-09-17T12:00:13;12.90;74.40
63445;DHT22;49573;47.682;9.170;2022-09-17T12:03:03;12.50;74.80
63445;DHT22;49573;47.682;9.170;2022-09-17T12:05:53;12.50;74.70
63445;DHT22;49573;47.682;9.170;2022-09-17T12:08:44;12.80;75.30
63445;DHT22;49573;47.682;9.170;2022-09-17T12:11:37;12.80;74.50
63445;DHT22;49573;47.682;9.170;2022-09-17T12:14:28;12.80;76.00
63445;DHT22;49573;47.682;9.170;2022-09-17T12:17:20;12.50;74.70
63445;DHT22;49573;47.682;9.170;2022-09-17T12:20:23;12.30;74.50
63445;DHT22;49573;47.682;9.170;2022-09-17T12:23:15;12.50;75.10
63445;DHT22;49573;47.682;9.170;2022-09-17T12:26:11;12.80;74.70
63445;DHT22;49573;47.682;9.170;2022-09-17T12:29:05;12.70;73.90
63445;DHT22;49573;47.682;9.170;2022-09-17T12:32:00;13.10;73.60
63445;DHT22;49573;47.682;9.170;2022-09-17T12:34:53;13.70;72.00
63445;DHT22;49573;47.682;9.170;2022-09-17T12:37:46;13.60;71.10
63445;DHT22;49573;47.682;9.170;2022-09-17T12:40:39;13.40;73.20
63445;DHT22;49573;47.682;9.170;2022-09-17T12:43:50;15.10;71.50
63445;DHT22;49573;47.682;9.170;2022-09-17T12:46:53;16.50;67.50
63445;DHT22;49573;47.682;9.170;2022-09-17T12:49:54;17.00;64.10
63445;DHT22;49573;47.682;9.170;2022-09-17T12:52:54;16.10;60.20
63445;DHT22;49573;47.682;9.170;2022-09-17T12:56:02;16.70;64.30
63445;DHT22;49573;47.682;9.170;2022-09-17T12:59:07;17.10;60.30
63445;DHT22;49573;47.682;9.170;2022-09-17T13:01:58;17.40;60.50
63445;DHT22;49573;47.682;9.170;2022-09-17T13:08:26;17.70;57.80
63445;DHT22;49573;47.682;9.170;2022-09-17T13:11:42;18.30;57.50
63445;DHT22;49573;47.682;9.170;2022-09-17T13:14:41;16.40;62.10
63445;DHT22;49573;47.682;9.170;2022-09-17T13:17:38;15.00;64.90
63445;DHT22;49573;47.682;9.170;2022-09-17T13:20:31;15.00;67.10
63445;DHT22;49573;47.682;9.170;2022-09-17T13:23:30;14.20;65.20
63445;DHT22;49573;47.682;9.170;2022-09-17T13:26:18;14.20;66.40
63445;DHT22;49573;47.682;9.170;2022-09-17T13:29:05;13.80;68.80
63445;DHT22;49573;47.682;9.170;2022-09-17T13:31:54;14.80;67.30
63445;DHT22;49573;47.682;9.170;2022-09-17T13:34:43;14.40;67.40
63445;DHT22;49573;47.682;9.170;2022-09-17T13:37:29;14.60;66.00
63445;DHT22;49573;47.682;9.170;2022-09-17T13:40:19;14.70;65.90
63445;DHT22;49573;47.682;9.170;2022-09-17T13:43:11;14.20;66.70
63445;DHT22;49573;47.682;9.170;2022-09-17T13:46:07;13.80;68.70
63445;DHT22;49573;47.682;9.170;2022-09-17T13:48:56;13.50;70.20
63445;DHT22;49573;47.682;9.170;2022-09-17T13:51:52;13.30;72.00
63445;DHT22;49573;47.682;9.170;2022-09-17T13:54:39;13.20;69.60
63445;DHT22;49573;47.682;9.170;2022-09-17T13:57:28;12.90;72.40
63445;DHT22;49573;47.682;9.170;2022-09-17T14:00:48;13.00;71.90
63445;DHT22;49573;47.682;9.170;2022-09-17T14:03:50;13.20;70.90
63445;DHT22;49573;47.682;9.170;2022-09-17T14:06:52;13.50;69.30
63445;DHT22;49573;47.682;9.170;2022-09-17T14:09:52;14.30;68.60
63445;DHT22;49573;47.682;9.170;2022-09-17T14:12:57;14.70;67.50
63445;DHT22;49573;47.682;9.170;2022-09-17T14:15:57;14.50;68.20
63445;DHT22;49573;47.682;9.170;2022-09-17T14:18:56;14.80;67.80
63445;DHT22;49573;47.682;9.170;2022-09-17T14:21:54;16.00;64.90
63445;DHT22;49573;47.682;9.170;2022-09-17T14:24:50;16.40;62.50
63445;DHT22;49573;47.682;9.170;2022-09-17T14:27:47;16.70;61.70
63445;DHT22;49573;47.682;9.170;2022-09-17T14:30:35;16.90;61.00
63445;DHT22;49573;47.682;9.170;2022-09-17T14:33:25;16.10;62.50
63445;DHT22;49573;47.682;9.170;2022-09-17T14:36:17;15.30;62.80
63445;DHT22;49573;47.682;9.170;2022-09-17T14:39:12;14.80;62.90
63445;DHT22;49573;47.682;9.170;2022-09-17T14:42:01;15.00;64.90
63445;DHT22;49573;47.682;9.170;2022-09-17T14:44:55;14.30;64.60
63445;DHT22;49573;47.682;9.170;2022-09-17T14:47:43;14.20;65.90
63445;DHT22;49573;47.682;9.170;2022-09-17T14:50:29;14.00;67.90
63445;DHT22;49573;47.682;9.170;2022-09-17T14:53:18;13.80;67.10
63445;DHT22;49573;47.682;9.170;2022-09-17T14:56:06;14.70;63.30
63445;DHT22;49573;47.682;9.170;2022-09-17T14:58:55;14.00;65.20
63445;DHT22;49573;47.682;9.170;2022-09-17T15:01:45;13.80;66.40
63445;DHT22;49573;47.682;9.170;2022-09-17T15:04:32;13.80;66.80
63445;DHT22;49573;47.682;9.170;2022-09-17T15:07:19;13.70;68.30
63445;DHT22;49573;47.682;9.170;2022-09-17T15:10:08;13.60;66.60
63445;DHT22;49573;47.682;9.170;2022-09-17T15:12:54;13.60;68.60
63445;DHT22;49573;47.682;9.170;2022-09-17T15:15:53;13.40;69.10
63445;DHT22;49573;47.682;9.170;2022-09-17T15:18:43;14.00;67.60
63445;DHT22;49573;47.682;9.170;2022-09-17T15:21:36;15.40;65.70
63445;DHT22;49573;47.682;9.170;2022-09-17T15:24:34;17.10;60.50
63445;DHT22;49573;47.682;9.170;2022-09-17T15:27:25;15.80;61.00
63445;DHT22;49573;47.682;9.170;2022-09-17T15:30:14;15.00;60.50
63445;DHT22;49573;47.682;9.170;2022-09-17T15:33:02;16.70;57.70
63445;DHT22;49573;47.682;9.170;2022-09-17T15:35:59;17.40;55.70
63445;DHT22;49573;47.682;9.170;2022-09-17T15:38:46;16.00;57.00
63445;DHT22;49573;47.682;9.170;2022-09-17T15:41:33;16.30;56.70
63445;DHT22;49573;47.682;9.170;2022-09-17T15:44:21;16.20;58.50
63445;DHT22;49573;47.682;9.170;2022-09-17T15:47:33;15.50;56.90
63445;DHT22;49573;47.682;9.170;2022-09-17T15:50:23;15.00;57.50
63445;DHT22;49573;47.682;9.170;2022-09-17T15:53:19;14.60;59.30
63445;DHT22;49573;47.682;9.170;2022-09-17T15:56:06;14.70;60.60
63445;DHT22;49573;47.682;9.170;2022-09-17T15:58:59;14.60;60.40
63445;DHT22;49573;47.682;9.170;2022-09-17T16:01:51;14.60;61.00
63445;DHT22;49573;47.682;9.170;2022-09-17T16:04:37;15.10;58.50
63445;DHT22;49573;47.682;9.170;2022-09-17T16:07:28;16.10;59.30
63445;DHT22;49573;47.682;9.170;2022-09-17T16:10:15;17.30;55.70
63445;DHT22;49573;47.682;9.170;2022-09-17T16:13:01;17.70;54.80
63445;DHT22;49573;47.682;9.170;2022-09-17T16:15:47;17.80;53.20
63445;DHT22;49573;47.682;9.170;2022-09-17T16:18:33;17.80;52.00
63445;DHT22;49573;47.682;9.170;2022-09-17T16:21:19;18.20;51.70
63445;DHT22;49573;47.682;9.170;2022-09-17T16:24:07;18.10;52.30
63445;DHT22;49573;47.682;9.170;2022-09-17T16:26:53;18.10;51.30
63445;DHT22;49573;47.682;9.170;2022-09-17T16:29:39;18.10;52.00
63445;DHT22;49573;47.682;9.170;2022-09-17T16:32:25;17.50;52.50
63445;DHT22;49573;47.682;9.170;2022-09-17T16:35:12;16.70;54.30
63445;DHT22;49573;47.682;9.170;2022-09-17T16:37:58;16.50;55.00
63445;DHT22;49573;47.682;9.170;2022-09-17T16:40:46;17.20;55.60
63445;DHT22;49573;47.682;9.170;2022-09-17T16:43:32;15.80;57.20
63445;DHT22;49573;47.682;9.170;2022-09-17T16:46:20;15.30;59.20
63445;DHT22;49573;47.682;9.170;2022-09-17T16:49:06;15.10;60.90
63445;DHT22;49573;47.682;9.170;2022-09-17T16:51:53;15.00;59.00
63445;DHT22;49573;47.682;9.170;2022-09-17T16:54:39;14.80;59.30
63445;DHT22;49573;47.682;9.170;2022-09-17T16:57:26;14.80;59.20
63445;DHT22;49573;47.682;9.170;2022-09-17T17:00:14;15.00;58.60
63445;DHT22;49573;47.682;9.170;2022-09-17T17:03:02;14.30;61.00
63445;DHT22;49573;47.682;9.170;2022-09-17T17:05:49;14.10;62.60
63445;DHT22;49573;47.682;9.170;2022-09-17T17:08:35;13.40;63.70
63445;DHT22;49573;47.682;9.170;2022-09-17T17:11:21;13.10;65.60
63445;DHT22;49573;47.682;9.170;2022-09-17T17:14:08;13.00;65.70
63445;DHT22;49573;47.682;9.170;2022-09-17T17:16:54;12.90;66.10
63445;DHT22;49573;47.682;9.170;2022-09-17T17:19:40;12.60;67.20
63445;DHT22;49573;47.682;9.170;2022-09-17T17:22:26;12.60;67.60
63445;DHT22;49573;47.682;9.170;2022-09-17T17:25:13;12.50;68.00
63445;DHT22;49573;47.682;9.170;2022-09-17T17:27:59;12.30;69.00
63445;DHT22;49573;47.682;9.170;2022-09-17T17:30:47;12.20;69.20
63445;DHT22;49573;47.682;9.170;2022-09-17T17:33:33;12.20;69.30
63445;DHT22;49573;47.682;9.170;2022-09-17T17:36:20;12.10;69.70
63445;DHT22;49573;47.682;9.170;2022-09-17T17:39:06;12.00;69.70
63445;DHT22;49573;47.682;9.170;2022-09-17T17:41:52;12.00;69.60
63445;DHT22;49573;47.682;9.170;2022-09-17T17:44:39;11.90;70.00
63445;DHT22;49573;47.682;9.170;2022-09-17T17:47:26;11.80;70.10
63445;DHT22;49573;47.682;9.170;2022-09-17T17:50:13;11.80;70.10
63445;DHT22;49573;47.682;9.170;2022-09-17T17:53:00;11.80;70.10
63445;DHT22;49573;47.682;9.170;2022-09-17T17:55:55;11.80;70.20
63445;DHT22;49573;47.682;9.170;2022-09-17T17:58:42;11.80;70.40